Time;durP1;ratioP1;P1;durP2;ratioP2;P2;SDS_P1;SDS_P2;PMS_P1;PMS_P2;Temp;Humidity;BMP_temperature;BMP_pressure;BME280_temperature;BME280_humidity;BME280_pressure;Samples;Min_cycle;Max_cycle;Signal;HPM_P1;HPM_P2
2022/01/17 00:00:21;;;;;;;;;;;20.50;33.20;;;;;;498913;239;1046;-43
2022/01/17 00:02:22;;;;;;;;;;;20.50;33.10;;;;;;498673;239;1158;-43
2022/01/17 00:04:24;;;;;;;;;;;20.50;33.10;;;;;;498666;239;1156;-43
2022/01/17 00:06:25;;;;;;;;;;;20.40;33.10;;;;;;498399;239;1225;-43
2022/01/17 00:08:26;;;;;;;;;;;20.50;33.10;;;;;;498422;239;1207;-43
2022/01/17 00:10:28;;;;;;;;;;;20.50;33.10;;;;;;498528;239;2146;-43
2022/01/17 00:12:31;;;;;;;;;;;20.50;33.10;;;;;;498570;239;1219;-43
2022/01/17 00:14:34;;;;;;;;;;;20.50;33.10;;;;;;498813;239;2089;-43
2022/01/17 00:16:40;;;;;;;;;;;20.50;33.10;;;;;;498102;239;2558;-43
2022/01/17 00:19:07;;;;;;;;;;;20.50;33.10;;;;;;497976;239;2124;-43
2022/01/17 00:20:56;;;;;;;;;;;20.50;33.10;;;;;;498038;239;2373;-43
2022/01/17 00:22:57;;;;;;;;;;;20.50;33.10;;;;;;498318;239;2196;-43
2022/01/17 00:24:58;;;;;;;;;;;20.50;33.10;;;;;;498701;239;1229;-43
2022/01/17 00:26:59;;;;;;;;;;;20.50;33.10;;;;;;498400;239;1228;-43
2022/01/17 00:29:01;;;;;;;;;;;20.50;33.10;;;;;;498847;239;1193;-43
2022/01/17 00:31:04;;;;;;;;;;;20.40;33.10;;;;;;498842;239;2192;-43
2022/01/17 00:33:03;;;;;;;;;;;20.40;33.20;;;;;;498367;239;2186;-43
2022/01/17 00:35:05;;;;;;;;;;;20.40;33.10;;;;;;498479;239;1311;-43
2022/01/17 00:37:06;;;;;;;;;;;20.40;33.10;;;;;;498347;239;1179;-43
2022/01/17 00:39:07;;;;;;;;;;;20.40;33.10;;;;;;498926;239;1017;-43
2022/01/17 00:41:09;;;;;;;;;;;20.50;33.10;;;;;;498437;239;1234;-43
2022/01/17 00:43:10;;;;;;;;;;;20.40;33.10;;;;;;498701;239;1172;-43
2022/01/17 00:45:13;;;;;;;;;;;20.40;33.10;;;;;;498915;239;1031;-43
2022/01/17 00:47:14;;;;;;;;;;;20.40;33.10;;;;;;498260;239;2205;-43
2022/01/17 00:49:15;;;;;;;;;;;20.40;33.20;;;;;;498428;239;1021;-43
2022/01/17 00:51:16;;;;;;;;;;;20.40;33.20;;;;;;498817;239;2173;-43
2022/01/17 00:53:17;;;;;;;;;;;20.40;33.10;;;;;;498443;239;1184;-43
2022/01/17 00:55:19;;;;;;;;;;;20.50;33.10;;;;;;498715;239;1101;-43
2022/01/17 00:57:20;;;;;;;;;;;20.70;32.80;;;;;;498773;236;1320;-43
2022/01/17 00:59:21;;;;;;;;;;;20.80;32.50;;;;;;498922;239;1075;-43
2022/01/17 01:01:23;;;;;;;;;;;21.00;32.20;;;;;;498402;239;1379;-43
2022/01/17 01:03:24;;;;;;;;;;;21.10;32.00;;;;;;498873;239;1201;-43
2022/01/17 01:05:25;;;;;;;;;;;21.20;31.90;;;;;;498486;239;1058;-43
2022/01/17 01:07:27;;;;;;;;;;;21.30;31.80;;;;;;498476;236;1317;-43
2022/01/17 01:09:34;;;;;;;;;;;21.30;31.70;;;;;;498945;239;1185;-43
2022/01/17 01:11:30;;;;;;;;;;;21.40;31.70;;;;;;498047;239;2221;-43
2022/01/17 01:13:31;;;;;;;;;;;21.40;31.50;;;;;;498886;239;1065;-43
2022/01/17 01:15:47;;;;;;;;;;;21.50;31.50;;;;;;498600;239;1199;-43
2022/01/17 01:17:51;;;;;;;;;;;21.50;31.40;;;;;;498435;239;2267;-43
2022/01/17 01:19:59;;;;;;;;;;;21.60;31.40;;;;;;498777;239;1283;-43
2022/01/17 01:29:09;;;;;;;;;;;21.70;31.00;;;;;;498405;239;1081;-43
2022/01/17 01:31:15;;;;;;;;;;;21.80;31.00;;;;;;498554;239;2122;-43
2022/01/17 01:33:16;;;;;;;;;;;21.80;31.00;;;;;;498139;239;2183;-43
2022/01/17 01:35:16;;;;;;;;;;;21.80;31.00;;;;;;498615;239;2107;-43
2022/01/17 01:37:15;;;;;;;;;;;21.80;31.00;;;;;;498177;239;1777;-43
2022/01/17 01:39:21;;;;;;;;;;;21.90;31.00;;;;;;498421;239;1189;-43
2022/01/17 01:41:18;;;;;;;;;;;21.90;30.90;;;;;;497933;239;2209;-43
2022/01/17 01:43:19;;;;;;;;;;;21.90;30.90;;;;;;498362;239;1128;-43
2022/01/17 01:45:21;;;;;;;;;;;21.90;30.90;;;;;;498852;239;1184;-43
2022/01/17 01:47:22;;;;;;;;;;;22.00;30.90;;;;;;498395;239;1373;-43
2022/01/17 01:49:23;;;;;;;;;;;22.00;30.90;;;;;;498838;239;1071;-43
2022/01/17 01:51:24;;;;;;;;;;;22.00;30.80;;;;;;498410;239;2176;-44
2022/01/17 01:53:26;;;;;;;;;;;22.00;30.80;;;;;;498884;239;1123;-43
2022/01/17 01:55:27;;;;;;;;;;;22.00;30.80;;;;;;498653;239;1247;-43
2022/01/17 01:57:28;;;;;;;;;;;22.00;30.70;;;;;;498912;239;1242;-43
2022/01/17 01:59:30;;;;;;;;;;;22.00;30.70;;;;;;498733;239;1191;-43
2022/01/17 02:01:31;;;;;;;;;;;22.00;30.70;;;;;;498348;239;1452;-43
2022/01/17 02:03:32;;;;;;;;;;;22.10;30.70;;;;;;498381;239;1565;-43
2022/01/17 02:05:33;;;;;;;;;;;22.10;30.70;;;;;;498910;239;1095;-43
2022/01/17 02:07:35;;;;;;;;;;;22.10;30.60;;;;;;498434;239;1220;-43
2022/01/17 02:09:37;;;;;;;;;;;22.10;30.70;;;;;;498958;239;1025;-43
2022/01/17 02:11:37;;;;;;;;;;;22.10;30.60;;;;;;498521;239;2149;-43
2022/01/17 02:13:39;;;;;;;;;;;22.10;30.60;;;;;;498938;239;1169;-43
2022/01/17 02:15:43;;;;;;;;;;;22.20;30.60;;;;;;498904;239;1213;-43
2022/01/17 02:17:45;;;;;;;;;;;22.20;30.60;;;;;;498705;239;2507;-43
2022/01/17 02:19:46;;;;;;;;;;;22.20;30.60;;;;;;498735;239;2230;-43
2022/01/17 02:21:46;;;;;;;;;;;22.20;30.60;;;;;;498494;239;2223;-43
2022/01/17 02:23:47;;;;;;;;;;;22.20;30.50;;;;;;498420;239;1086;-43
2022/01/17 02:25:49;;;;;;;;;;;22.20;30.50;;;;;;498806;239;1205;-43
2022/01/17 02:27:50;;;;;;;;;;;22.20;30.50;;;;;;498318;239;2492;-43
2022/01/17 02:29:51;;;;;;;;;;;22.20;30.50;;;;;;498891;239;1058;-43
2022/01/17 02:31:53;;;;;;;;;;;22.20;30.50;;;;;;498859;239;2184;-43
2022/01/17 02:33:54;;;;;;;;;;;22.20;30.50;;;;;;498944;239;1027;-43
2022/01/17 02:35:55;;;;;;;;;;;22.30;30.50;;;;;;498406;239;1155;-43
2022/01/17 02:37:57;;;;;;;;;;;22.30;30.50;;;;;;498893;239;1178;-44
2022/01/17 02:39:58;;;;;;;;;;;22.30;30.50;;;;;;498453;239;1294;-43
2022/01/17 02:42:00;;;;;;;;;;;22.30;30.50;;;;;;498352;239;1195;-43
2022/01/17 02:44:02;;;;;;;;;;;22.30;30.50;;;;;;498906;239;1134;-43
2022/01/17 02:48:21;;;;;;;;;;;22.30;30.50;;;;;;498449;239;1234;-43
2022/01/17 02:50:23;;;;;;;;;;;22.30;30.50;;;;;;498850;239;1060;-43
2022/01/17 02:52:24;;;;;;;;;;;22.30;30.40;;;;;;498480;239;2121;-43
2022/01/17 02:54:25;;;;;;;;;;;22.30;30.40;;;;;;498421;239;1044;-43
2022/01/17 02:56:27;;;;;;;;;;;22.30;30.40;;;;;;498363;239;1177;-43
2022/01/17 02:58:28;;;;;;;;;;;22.40;30.50;;;;;;498951;239;1189;-43
2022/01/17 03:00:29;;;;;;;;;;;22.40;30.40;;;;;;498413;236;1193;-43
2022/01/17 03:02:30;;;;;;;;;;;22.40;30.40;;;;;;498842;239;1324;-44
2022/01/17 03:04:33;;;;;;;;;;;22.40;30.40;;;;;;498955;239;1622;-43
2022/01/17 03:06:33;;;;;;;;;;;22.40;30.40;;;;;;498293;236;1440;-43
2022/01/17 03:08:34;;;;;;;;;;;22.40;30.40;;;;;;498608;239;1243;-43
2022/01/17 03:10:39;;;;;;;;;;;22.40;30.50;;;;;;498901;239;1021;-43
2022/01/17 03:12:37;;;;;;;;;;;22.40;30.40;;;;;;498243;239;2204;-43
2022/01/17 03:14:38;;;;;;;;;;;22.40;30.40;;;;;;498869;239;1042;-43
2022/01/17 03:16:46;;;;;;;;;;;22.40;30.40;;;;;;498350;239;1303;-43
2022/01/17 03:18:41;;;;;;;;;;;22.40;30.40;;;;;;498399;239;2056;-43
2022/01/17 03:20:42;;;;;;;;;;;22.40;30.40;;;;;;498895;239;1482;-43
2022/01/17 03:22:44;;;;;;;;;;;22.40;30.40;;;;;;498813;239;1322;-43
2022/01/17 03:24:45;;;;;;;;;;;22.40;30.40;;;;;;498928;239;1222;-43
2022/01/17 03:26:46;;;;;;;;;;;22.40;30.40;;;;;;498743;239;1346;-44
2022/01/17 03:28:48;;;;;;;;;;;22.40;30.40;;;;;;498916;239;1196;-43
2022/01/17 03:30:49;;;;;;;;;;;22.50;30.40;;;;;;498840;239;1111;-43
2022/01/17 03:32:50;;;;;;;;;;;22.50;30.40;;;;;;498841;239;2177;-43
2022/01/17 03:34:54;;;;;;;;;;;22.50;30.30;;;;;;498908;239;1107;-43
2022/01/17 03:36:53;;;;;;;;;;;22.50;30.30;;;;;;498180;239;1957;-43
2022/01/17 03:38:55;;;;;;;;;;;22.50;30.40;;;;;;498433;239;1073;-43
2022/01/17 03:40:57;;;;;;;;;;;22.50;30.40;;;;;;498346;239;2236;-43
2022/01/17 03:42:57;;;;;;;;;;;22.50;30.30;;;;;;498319;239;2122;-44
2022/01/17 03:45:00;;;;;;;;;;;22.50;30.40;;;;;;498950;239;1052;-43
2022/01/17 03:47:00;;;;;;;;;;;22.50;30.30;;;;;;498207;239;2078;-43
2022/01/17 03:49:01;;;;;;;;;;;22.50;30.30;;;;;;498879;239;1082;-43
2022/01/17 03:51:02;;;;;;;;;;;22.50;30.30;;;;;;498794;239;1360;-43
2022/01/17 03:53:04;;;;;;;;;;;22.50;30.40;;;;;;498896;239;2184;-43
2022/01/17 03:55:05;;;;;;;;;;;22.50;30.30;;;;;;498947;239;1038;-43
2022/01/17 03:57:06;;;;;;;;;;;22.50;30.30;;;;;;498555;239;1369;-43
2022/01/17 03:59:08;;;;;;;;;;;22.50;30.30;;;;;;498695;239;1223;-43
2022/01/17 04:01:09;;;;;;;;;;;22.60;30.40;;;;;;498409;239;1341;-43
2022/01/17 04:03:11;;;;;;;;;;;22.50;30.30;;;;;;498905;239;1240;-44
2022/01/17 04:05:12;;;;;;;;;;;22.50;30.40;;;;;;498458;239;972;-43
2022/01/17 04:07:13;;;;;;;;;;;22.60;30.40;;;;;;498453;239;1179;-43
2022/01/17 04:09:15;;;;;;;;;;;22.60;30.40;;;;;;498408;239;1154;-43
2022/01/17 04:11:16;;;;;;;;;;;22.60;30.40;;;;;;498402;239;1373;-43
2022/01/17 04:13:18;;;;;;;;;;;22.50;30.30;;;;;;498598;239;2180;-43
2022/01/17 04:15:19;;;;;;;;;;;22.60;30.40;;;;;;498472;239;1065;-43
2022/01/17 04:17:20;;;;;;;;;;;22.50;30.30;;;;;;498802;239;1149;-43
2022/01/17 04:19:21;;;;;;;;;;;22.60;30.30;;;;;;498495;239;1326;-43
2022/01/17 04:21:22;;;;;;;;;;;22.60;30.30;;;;;;498258;237;1221;-43
2022/01/17 04:23:24;;;;;;;;;;;22.60;30.30;;;;;;498917;239;1045;-43
2022/01/17 04:25:25;;;;;;;;;;;22.60;30.30;;;;;;498447;239;996;-43
2022/01/17 04:27:26;;;;;;;;;;;22.60;30.40;;;;;;498562;239;1193;-43
2022/01/17 04:29:28;;;;;;;;;;;22.60;30.30;;;;;;498910;238;1063;-43
2022/01/17 04:31:29;;;;;;;;;;;22.60;30.30;;;;;;498488;239;1608;-43
2022/01/17 04:33:31;;;;;;;;;;;22.60;30.30;;;;;;498419;239;2114;-43
2022/01/17 04:35:32;;;;;;;;;;;22.60;30.30;;;;;;498796;239;1048;-44
2022/01/17 04:37:33;;;;;;;;;;;22.60;30.30;;;;;;498299;239;1223;-43
2022/01/17 04:39:35;;;;;;;;;;;22.60;30.30;;;;;;498922;239;973;-43
2022/01/17 04:41:39;;;;;;;;;;;22.60;30.30;;;;;;498868;239;1089;-43
2022/01/17 04:43:56;;;;;;;;;;;22.60;30.30;;;;;;498468;239;2302;-43
2022/01/17 04:45:46;;;;;;;;;;;22.60;30.30;;;;;;498132;239;1862;-43
2022/01/17 04:47:47;;;;;;;;;;;22.60;30.30;;;;;;498347;239;1131;-43
2022/01/17 04:49:48;;;;;;;;;;;22.60;30.30;;;;;;498409;239;1037;-43
2022/01/17 04:51:53;;;;;;;;;;;22.60;30.30;;;;;;498622;239;1576;-43
2022/01/17 04:54:12;;;;;;;;;;;22.70;30.30;;;;;;498206;239;2189;-43
2022/01/17 04:55:55;;;;;;;;;;;22.70;30.30;;;;;;497189;239;2215;-43
2022/01/17 04:57:57;;;;;;;;;;;22.70;30.30;;;;;;498734;239;1101;-43
2022/01/17 04:59:58;;;;;;;;;;;22.70;30.30;;;;;;498644;239;1090;-43
2022/01/17 05:01:59;;;;;;;;;;;22.70;30.30;;;;;;498464;239;1306;-43
2022/01/17 05:04:01;;;;;;;;;;;22.70;30.30;;;;;;498388;239;1046;-43
2022/01/17 05:06:02;;;;;;;;;;;22.70;30.30;;;;;;498395;239;1338;-43
2022/01/17 05:08:03;;;;;;;;;;;22.70;30.20;;;;;;498444;239;1185;-42
2022/01/17 05:10:05;;;;;;;;;;;22.70;30.30;;;;;;498892;239;1222;-43
2022/01/17 05:12:06;;;;;;;;;;;22.70;30.20;;;;;;498491;239;2126;-43
2022/01/17 05:14:08;;;;;;;;;;;22.70;30.20;;;;;;498566;239;1208;-43
2022/01/17 05:16:13;;;;;;;;;;;22.70;30.20;;;;;;498496;239;1287;-43
2022/01/17 05:19:47;;;;;;;;;;;22.70;30.30;;;;;;498568;239;2076;-43
2022/01/17 05:20:15;;;;;;;;;;;22.70;30.30;;;;;;497119;239;1834;-43
2022/01/17 05:22:16;;;;;;;;;;;22.70;30.20;;;;;;498710;239;1185;-43
2022/01/17 05:24:18;;;;;;;;;;;22.80;30.30;;;;;;498841;239;1059;-43
2022/01/17 05:26:19;;;;;;;;;;;22.70;30.30;;;;;;498323;239;1061;-43
2022/01/17 05:28:20;;;;;;;;;;;22.70;30.30;;;;;;498742;239;1216;-43
2022/01/17 05:30:22;;;;;;;;;;;22.70;30.20;;;;;;498910;239;1028;-44
2022/01/17 05:32:23;;;;;;;;;;;22.70;30.30;;;;;;498282;239;2173;-43
2022/01/17 05:34:24;;;;;;;;;;;22.80;30.30;;;;;;498383;239;1050;-43
2022/01/17 05:36:26;;;;;;;;;;;22.70;30.20;;;;;;498531;239;1239;-43
2022/01/17 05:38:27;;;;;;;;;;;22.80;30.30;;;;;;498575;239;1115;-43
2022/01/17 05:40:28;;;;;;;;;;;22.80;30.20;;;;;;498803;239;970;-43
2022/01/17 05:42:30;;;;;;;;;;;22.80;30.20;;;;;;498561;239;1293;-43
2022/01/17 05:44:31;;;;;;;;;;;22.80;30.20;;;;;;498537;239;1216;-43
2022/01/17 05:46:32;;;;;;;;;;;22.80;30.20;;;;;;498364;239;1220;-43
2022/01/17 05:48:34;;;;;;;;;;;22.80;30.20;;;;;;498498;239;1068;-43
2022/01/17 05:50:35;;;;;;;;;;;22.80;30.20;;;;;;498803;239;1049;-43
2022/01/17 05:52:36;;;;;;;;;;;22.80;30.20;;;;;;498192;239;2204;-43
2022/01/17 05:54:38;;;;;;;;;;;22.80;30.20;;;;;;498266;239;1062;-44
2022/01/17 05:56:39;;;;;;;;;;;22.80;30.20;;;;;;498228;239;1308;-43
2022/01/17 05:58:40;;;;;;;;;;;22.80;30.20;;;;;;498678;239;1253;-43
2022/01/17 06:00:42;;;;;;;;;;;22.80;30.20;;;;;;498511;239;1261;-43
2022/01/17 06:02:43;;;;;;;;;;;22.80;30.20;;;;;;498123;239;1212;-43
2022/01/17 06:04:44;;;;;;;;;;;22.80;30.20;;;;;;498460;239;1230;-43
2022/01/17 06:06:46;;;;;;;;;;;22.80;30.20;;;;;;498351;239;1331;-43
2022/01/17 06:08:47;;;;;;;;;;;22.80;30.20;;;;;;498439;239;1224;-44
2022/01/17 06:10:48;;;;;;;;;;;22.80;30.20;;;;;;498610;239;1079;-43
2022/01/17 06:12:50;;;;;;;;;;;22.80;30.20;;;;;;498149;239;2129;-43
2022/01/17 06:14:51;;;;;;;;;;;22.80;30.20;;;;;;498305;239;1260;-43
2022/01/17 06:16:52;;;;;;;;;;;22.80;30.20;;;;;;498269;239;1382;-43
2022/01/17 06:18:54;;;;;;;;;;;22.80;30.20;;;;;;498069;239;1161;-43
2022/01/17 06:20:55;;;;;;;;;;;22.80;30.20;;;;;;498146;239;1166;-43
2022/01/17 06:22:57;;;;;;;;;;;22.80;30.20;;;;;;498613;239;1613;-43
2022/01/17 06:24:58;;;;;;;;;;;22.80;30.20;;;;;;498166;239;1058;-43
2022/01/17 06:26:59;;;;;;;;;;;22.80;30.20;;;;;;498134;239;1348;-43
2022/01/17 06:29:01;;;;;;;;;;;22.80;30.20;;;;;;498155;239;1194;-43
2022/01/17 06:31:02;;;;;;;;;;;22.80;30.10;;;;;;498205;239;1317;-43
2022/01/17 06:33:03;;;;;;;;;;;22.90;30.20;;;;;;498232;239;2197;-43
2022/01/17 06:35:05;;;;;;;;;;;22.90;30.20;;;;;;498514;239;1083;-43
2022/01/17 06:37:06;;;;;;;;;;;22.90;30.20;;;;;;498339;239;1188;-43
2022/01/17 06:39:07;;;;;;;;;;;22.90;30.20;;;;;;498177;239;1030;-43
2022/01/17 06:41:09;;;;;;;;;;;22.90;30.20;;;;;;498089;239;1227;-43
2022/01/17 06:43:10;;;;;;;;;;;22.90;30.20;;;;;;497968;239;1046;-43
2022/01/17 06:45:13;;;;;;;;;;;22.90;30.20;;;;;;497977;239;1204;-43
2022/01/17 06:47:12;;;;;;;;;;;22.90;30.10;;;;;;497953;239;2056;-43
2022/01/17 06:49:14;;;;;;;;;;;22.90;30.10;;;;;;498502;239;1043;-43
2022/01/17 06:51:15;;;;;;;;;;;22.90;30.20;;;;;;497997;237;1197;-43
2022/01/17 06:53:16;;;;;;;;;;;22.90;30.10;;;;;;498176;239;2404;-43
2022/01/17 06:55:18;;;;;;;;;;;22.90;30.10;;;;;;498150;239;1136;-43
2022/01/17 06:57:19;;;;;;;;;;;22.90;30.20;;;;;;498005;239;1163;-43
2022/01/17 06:59:20;;;;;;;;;;;22.90;30.20;;;;;;498001;239;1435;-43
2022/01/17 07:01:22;;;;;;;;;;;22.90;30.10;;;;;;497970;239;1210;-43
2022/01/17 07:03:23;;;;;;;;;;;22.90;30.10;;;;;;498071;239;1173;-43
2022/01/17 07:05:24;;;;;;;;;;;22.90;30.10;;;;;;497908;239;1353;-43
2022/01/17 07:07:26;;;;;;;;;;;22.90;30.20;;;;;;497931;239;1357;-43
2022/01/17 07:09:27;;;;;;;;;;;22.90;30.30;;;;;;498042;239;1066;-43
2022/01/17 07:11:28;;;;;;;;;;;22.80;30.20;;;;;;498166;239;1452;-43
2022/01/17 07:13:30;;;;;;;;;;;22.70;30.30;;;;;;498099;239;2184;-43
2022/01/17 07:15:31;;;;;;;;;;;22.50;30.70;;;;;;497980;239;1287;-43
2022/01/17 07:17:32;;;;;;;;;;;22.30;31.10;;;;;;497952;239;1216;-43
2022/01/17 07:19:34;;;;;;;;;;;22.20;31.30;;;;;;497929;239;1087;-43
2022/01/17 07:21:35;;;;;;;;;;;22.10;31.50;;;;;;498072;239;1354;-43
2022/01/17 07:23:36;;;;;;;;;;;22.00;31.60;;;;;;498004;239;1051;-43
2022/01/17 07:25:38;;;;;;;;;;;21.90;31.70;;;;;;498083;239;1383;-43
2022/01/17 07:27:42;;;;;;;;;;;21.90;31.80;;;;;;497811;239;1101;-43
2022/01/17 07:29:42;;;;;;;;;;;21.80;31.80;;;;;;497592;239;2371;-43
2022/01/17 07:31:42;;;;;;;;;;;21.80;31.90;;;;;;497620;239;2338;-43
2022/01/17 07:33:44;;;;;;;;;;;21.70;32.00;;;;;;497812;239;2180;-43
2022/01/17 07:35:45;;;;;;;;;;;21.70;32.00;;;;;;497634;239;1363;-43
2022/01/17 07:37:46;;;;;;;;;;;21.70;32.00;;;;;;497983;239;1103;-43
2022/01/17 07:39:48;;;;;;;;;;;21.70;32.00;;;;;;497897;239;1050;-43
2022/01/17 07:41:49;;;;;;;;;;;21.60;32.10;;;;;;497948;239;1172;-43
2022/01/17 07:43:52;;;;;;;;;;;21.50;32.20;;;;;;498021;239;1113;-43
2022/01/17 07:46:03;;;;;;;;;;;21.50;32.20;;;;;;497578;239;1944;-43
2022/01/17 07:48:09;;;;;;;;;;;21.40;32.20;;;;;;497435;239;2254;-43
2022/01/17 07:49:59;;;;;;;;;;;21.40;32.20;;;;;;497033;239;1404;-43
2022/01/17 07:52:00;;;;;;;;;;;21.40;32.20;;;;;;497768;239;1157;-43
2022/01/17 07:54:02;;;;;;;;;;;21.40;32.30;;;;;;497720;239;2130;-43
2022/01/17 07:56:03;;;;;;;;;;;21.40;32.40;;;;;;497776;239;2235;-43
2022/01/17 07:58:05;;;;;;;;;;;21.40;32.40;;;;;;497645;239;1576;-43
2022/01/17 08:00:06;;;;;;;;;;;21.30;32.30;;;;;;497655;239;1303;-43
2022/01/17 08:02:07;;;;;;;;;;;21.30;32.30;;;;;;497549;239;1295;-43
2022/01/17 08:04:09;;;;;;;;;;;21.30;32.40;;;;;;497894;239;1164;-43
2022/01/17 08:06:10;;;;;;;;;;;21.30;32.30;;;;;;497778;239;1254;-43
2022/01/17 08:08:11;;;;;;;;;;;21.30;32.30;;;;;;497486;239;1235;-43
2022/01/17 08:10:13;;;;;;;;;;;21.20;32.40;;;;;;497466;239;1026;-43
2022/01/17 08:12:14;;;;;;;;;;;21.20;32.40;;;;;;497448;239;1178;-43
2022/01/17 08:14:15;;;;;;;;;;;21.20;32.40;;;;;;497763;239;2174;-43
2022/01/17 08:16:16;;;;;;;;;;;21.20;32.40;;;;;;497457;239;1437;-43
2022/01/17 08:18:18;;;;;;;;;;;21.20;32.40;;;;;;497782;239;1153;-43
2022/01/17 08:20:20;;;;;;;;;;;21.20;32.40;;;;;;497601;239;1187;-43
2022/01/17 08:22:20;;;;;;;;;;;21.20;32.40;;;;;;497314;239;1246;-43
2022/01/17 08:24:22;;;;;;;;;;;21.20;32.40;;;;;;497328;239;1093;-43
2022/01/17 08:26:23;;;;;;;;;;;21.20;32.40;;;;;;497365;239;1400;-43
2022/01/17 08:28:24;;;;;;;;;;;21.20;32.40;;;;;;497509;239;1089;-43
2022/01/17 08:30:26;;;;;;;;;;;21.10;32.40;;;;;;497571;239;1251;-43
2022/01/17 08:32:29;;;;;;;;;;;21.10;32.40;;;;;;497549;239;1157;-43
2022/01/17 08:34:29;;;;;;;;;;;21.10;32.40;;;;;;497390;239;2259;-43
2022/01/17 08:36:31;;;;;;;;;;;21.10;32.40;;;;;;497484;239;1133;-43
2022/01/17 08:38:32;;;;;;;;;;;21.10;32.40;;;;;;497542;239;1506;-43
2022/01/17 08:40:33;;;;;;;;;;;21.10;32.40;;;;;;497445;239;1337;-43
2022/01/17 08:42:37;;;;;;;;;;;21.10;32.30;;;;;;497477;239;1365;-43
2022/01/17 08:44:36;;;;;;;;;;;21.10;32.40;;;;;;497478;239;2185;-43
2022/01/17 08:46:37;;;;;;;;;;;21.10;32.30;;;;;;497506;239;1331;-43
2022/01/17 08:48:38;;;;;;;;;;;21.10;32.40;;;;;;497609;239;1072;-43
2022/01/17 08:50:41;;;;;;;;;;;21.10;32.40;;;;;;497511;239;1435;-43
2022/01/17 08:52:41;;;;;;;;;;;21.10;32.40;;;;;;497802;239;2082;-43
2022/01/17 08:54:43;;;;;;;;;;;21.10;32.40;;;;;;497612;239;2188;-43
2022/01/17 08:56:44;;;;;;;;;;;21.10;32.40;;;;;;497598;239;1427;-42
2022/01/17 08:58:45;;;;;;;;;;;21.10;32.30;;;;;;497594;239;1096;-43
2022/01/17 09:00:47;;;;;;;;;;;21.10;32.40;;;;;;497636;235;1342;-43
2022/01/17 09:02:48;;;;;;;;;;;21.10;32.40;;;;;;497595;239;1176;-43
2022/01/17 09:04:49;;;;;;;;;;;21.10;32.40;;;;;;497663;239;1208;-43
2022/01/17 09:06:51;;;;;;;;;;;21.00;32.40;;;;;;497760;237;1360;-43
2022/01/17 09:08:52;;;;;;;;;;;21.00;32.40;;;;;;497942;239;992;-43
2022/01/17 09:10:56;;;;;;;;;;;21.00;32.30;;;;;;497609;239;1324;-43
2022/01/17 09:12:56;;;;;;;;;;;21.00;32.30;;;;;;497466;239;2060;-43
2022/01/17 09:14:56;;;;;;;;;;;21.00;32.30;;;;;;497423;239;2188;-43
2022/01/17 09:16:57;;;;;;;;;;;21.00;32.30;;;;;;497564;239;1287;-43
2022/01/17 09:19:00;;;;;;;;;;;21.10;32.30;;;;;;497590;239;1128;-43
2022/01/17 09:21:00;;;;;;;;;;;21.10;32.30;;;;;;497340;239;2176;-43
2022/01/17 09:23:02;;;;;;;;;;;21.00;32.20;;;;;;497465;239;1192;-42
2022/01/17 09:25:06;;;;;;;;;;;21.00;32.30;;;;;;497448;239;1110;-43
2022/01/17 09:27:05;;;;;;;;;;;21.00;32.20;;;;;;497529;239;2091;-43
2022/01/17 09:29:07;;;;;;;;;;;21.00;32.20;;;;;;497645;239;1083;-43
2022/01/17 09:31:08;;;;;;;;;;;21.00;32.10;;;;;;497517;239;1326;-43
2022/01/17 09:33:09;;;;;;;;;;;21.10;32.20;;;;;;497653;239;1295;-43
2022/01/17 09:35:11;;;;;;;;;;;21.00;32.20;;;;;;497669;239;2185;-43
2022/01/17 09:37:12;;;;;;;;;;;21.10;32.20;;;;;;497684;239;1371;-43
2022/01/17 09:39:14;;;;;;;;;;;21.00;32.20;;;;;;497651;239;1085;-43
2022/01/17 09:41:15;;;;;;;;;;;21.00;32.20;;;;;;497638;239;1479;-43
2022/01/17 09:43:16;;;;;;;;;;;21.10;32.20;;;;;;497688;239;1361;-43
2022/01/17 09:45:18;;;;;;;;;;;21.10;32.10;;;;;;497671;239;1052;-43
2022/01/17 09:47:19;;;;;;;;;;;21.00;32.10;;;;;;497514;239;1369;-43
2022/01/17 09:49:29;;;;;;;;;;;21.10;32.10;;;;;;497493;239;1214;-43
2022/01/17 09:51:38;;;;;;;;;;;21.10;32.10;;;;;;496973;239;2092;-43
2022/01/17 09:53:34;;;;;;;;;;;21.10;32.10;;;;;;496698;239;2194;-43
2022/01/17 09:55:34;;;;;;;;;;;21.10;32.10;;;;;;497128;239;2193;-43
2022/01/17 09:57:35;;;;;;;;;;;21.10;32.00;;;;;;497506;239;1246;-44
2022/01/17 09:59:36;;;;;;;;;;;21.10;32.00;;;;;;497511;239;1239;-43
2022/01/17 10:01:39;;;;;;;;;;;21.10;32.00;;;;;;497517;239;1325;-43
2022/01/17 10:03:39;;;;;;;;;;;21.10;32.00;;;;;;497316;239;2117;-43
2022/01/17 10:05:40;;;;;;;;;;;21.10;32.00;;;;;;497436;239;1315;-43
2022/01/17 10:07:42;;;;;;;;;;;21.10;32.00;;;;;;497743;239;1151;-43
2022/01/17 10:09:45;;;;;;;;;;;21.10;31.90;;;;;;497635;239;1160;-43
2022/01/17 10:11:44;;;;;;;;;;;21.20;31.90;;;;;;497450;239;2059;-43
2022/01/17 10:13:47;;;;;;;;;;;21.10;31.90;;;;;;497546;239;1211;-43
2022/01/17 10:15:49;;;;;;;;;;;21.10;31.80;;;;;;497496;239;2191;-43
2022/01/17 10:17:50;;;;;;;;;;;21.10;31.80;;;;;;497587;239;2058;-43
2022/01/17 10:19:50;;;;;;;;;;;21.10;31.90;;;;;;497520;239;1828;-43
2022/01/17 10:21:54;;;;;;;;;;;21.10;31.90;;;;;;497541;239;1720;-43
2022/01/17 10:26:38;;;;;;;;;;;21.10;31.80;;;;;;497657;239;1250;-43
2022/01/17 10:29:02;;;;;;;;;;;21.10;31.80;;;;;;496941;239;2279;-43
2022/01/17 10:31:08;;;;;;;;;;;21.20;31.80;;;;;;496355;239;2120;-43
2022/01/17 10:35:13;;;;;;;;;;;21.20;31.80;;;;;;497501;239;2110;-43
2022/01/17 10:37:14;;;;;;;;;;;21.20;31.70;;;;;;497694;239;1135;-43
2022/01/17 10:39:15;;;;;;;;;;;21.20;31.70;;;;;;498370;239;1079;-43
2022/01/17 10:41:17;;;;;;;;;;;21.20;31.70;;;;;;497848;239;1253;-43
2022/01/17 10:43:18;;;;;;;;;;;21.10;31.70;;;;;;497670;239;1090;-43
2022/01/17 10:45:20;;;;;;;;;;;21.10;31.70;;;;;;497555;239;1096;-43
2022/01/17 10:47:21;;;;;;;;;;;21.10;31.70;;;;;;497666;239;1203;-43
2022/01/17 10:49:22;;;;;;;;;;;21.20;31.70;;;;;;497817;239;1094;-43
2022/01/17 10:51:23;;;;;;;;;;;21.20;31.60;;;;;;497718;239;1312;-42
2022/01/17 10:53:24;;;;;;;;;;;21.20;31.70;;;;;;497777;239;1093;-43
2022/01/17 10:55:26;;;;;;;;;;;21.20;31.70;;;;;;497554;239;2184;-43
2022/01/17 10:57:27;;;;;;;;;;;21.20;31.70;;;;;;497793;239;1357;-43
2022/01/17 10:59:28;;;;;;;;;;;21.10;31.70;;;;;;497403;239;1196;-43
2022/01/17 11:01:30;;;;;;;;;;;21.10;31.80;;;;;;497457;239;1280;-43
2022/01/17 11:03:31;;;;;;;;;;;21.10;31.80;;;;;;497473;239;1188;-43
2022/01/17 11:05:33;;;;;;;;;;;21.10;31.80;;;;;;497489;239;1096;-43
2022/01/17 11:07:34;;;;;;;;;;;21.10;31.80;;;;;;497448;239;1177;-43
2022/01/17 11:09:35;;;;;;;;;;;21.10;31.80;;;;;;497601;239;1223;-43
2022/01/17 11:11:37;;;;;;;;;;;21.10;31.80;;;;;;497563;239;1317;-43
2022/01/17 11:13:38;;;;;;;;;;;21.10;31.80;;;;;;497714;239;1483;-43
2022/01/17 11:15:39;;;;;;;;;;;21.10;31.70;;;;;;497434;239;2126;-43
2022/01/17 11:17:47;;;;;;;;;;;21.10;31.80;;;;;;497582;239;1215;-43
2022/01/17 11:22:01;;;;;;;;;;;21.10;31.70;;;;;;497670;239;1296;-43
2022/01/17 11:24:03;;;;;;;;;;;21.10;31.80;;;;;;497568;239;1064;-43
2022/01/17 11:26:05;;;;;;;;;;;21.10;31.80;;;;;;497247;239;1472;-43
2022/01/17 11:28:05;;;;;;;;;;;21.10;31.70;;;;;;497523;239;2296;-43
2022/01/17 11:30:07;;;;;;;;;;;21.10;31.80;;;;;;497682;239;1098;-43
2022/01/17 11:32:08;;;;;;;;;;;21.10;31.80;;;;;;497706;239;1469;-43
2022/01/17 11:34:13;;;;;;;;;;;21.10;31.80;;;;;;497461;239;1194;-43
2022/01/17 11:36:11;;;;;;;;;;;21.00;31.70;;;;;;496851;239;2364;-43
2022/01/17 11:38:12;;;;;;;;;;;21.00;31.70;;;;;;497514;239;2313;-43
2022/01/17 11:40:13;;;;;;;;;;;21.10;31.80;;;;;;497703;239;1134;-43
2022/01/17 11:42:15;;;;;;;;;;;21.00;31.80;;;;;;497478;239;1253;-43
2022/01/17 11:44:16;;;;;;;;;;;21.00;31.80;;;;;;497495;239;1139;-43
2022/01/17 11:46:17;;;;;;;;;;;21.00;31.80;;;;;;497556;239;1495;-43
2022/01/17 11:48:19;;;;;;;;;;;21.00;31.80;;;;;;497706;239;1210;-43
2022/01/17 11:50:20;;;;;;;;;;;21.00;31.80;;;;;;497630;239;1066;-43
2022/01/17 11:52:21;;;;;;;;;;;21.00;31.70;;;;;;497571;239;1463;-43
2022/01/17 11:54:23;;;;;;;;;;;21.00;31.70;;;;;;497702;239;2189;-43
2022/01/17 11:56:24;;;;;;;;;;;21.00;31.70;;;;;;497505;239;1493;-43
2022/01/17 11:58:25;;;;;;;;;;;21.00;31.70;;;;;;497493;239;1273;-43
2022/01/17 12:00:27;;;;;;;;;;;21.00;31.80;;;;;;497596;239;1318;-43
2022/01/17 12:02:28;;;;;;;;;;;21.10;31.70;;;;;;497563;239;1318;-43
2022/01/17 12:04:29;;;;;;;;;;;21.10;31.70;;;;;;497539;239;1235;-43
2022/01/17 12:06:31;;;;;;;;;;;21.10;31.60;;;;;;497660;239;1201;-43
2022/01/17 12:08:32;;;;;;;;;;;21.10;31.60;;;;;;497495;239;1229;-43
2022/01/17 12:10:34;;;;;;;;;;;21.10;31.60;;;;;;497540;239;1121;-43
2022/01/17 12:12:35;;;;;;;;;;;21.10;31.70;;;;;;497593;239;1260;-43
2022/01/17 12:14:36;;;;;;;;;;;21.10;31.60;;;;;;497730;239;2165;-43